sensor_id;sensor_type;location;lat;lon;timestamp;pressure;altitude;pressure_sealevel;temperature;humidity
20105;BME280;10212;42.714;23.310;2022-08-11T00:01:54;95401.81;;;18.30;77.07
20105;BME280;10212;42.714;23.310;2022-08-11T00:06:55;95400.75;;;18.31;76.73
20105;BME280;10212;42.714;23.310;2022-08-11T00:11:57;95395.53;;;18.37;76.29
20105;BME280;10212;42.714;23.310;2022-08-11T00:17:00;95399.69;;;18.32;76.56
20105;BME280;10212;42.714;23.310;2022-08-11T00:22:02;95408.53;;;18.21;77.04
20105;BME280;10212;42.714;23.310;2022-08-11T00:27:04;95388.84;;;18.12;77.73
20105;BME280;10212;42.714;23.310;2022-08-11T00:32:05;95391.13;;;18.20;77.33
20105;BME280;10212;42.714;23.310;2022-08-11T00:37:18;95387.13;;;18.17;77.81
20105;BME280;10212;42.714;23.310;2022-08-11T01:15:29;95390.25;;;17.80;79.98
20105;BME280;10212;42.714;23.310;2022-08-11T01:58:58;95368.91;;;17.81;79.85
20105;BME280;10212;42.714;23.310;2022-08-11T02:09:25;95368.94;;;17.47;81.53
20105;BME280;10212;42.714;23.310;2022-08-11T02:20:34;95372.13;;;17.15;82.81
20105;BME280;10212;42.714;23.310;2022-08-11T02:26:02;95365.72;;;17.10;82.81
20105;BME280;10212;42.714;23.310;2022-08-11T02:36:34;95379.63;;;16.94;83.12
20105;BME280;10212;42.714;23.310;2022-08-11T02:58:09;95365.56;;;16.18;85.91
20105;BME280;10212;42.714;23.310;2022-08-11T03:03:22;95364.41;;;16.13;86.24
20105;BME280;10212;42.714;23.310;2022-08-11T03:13:33;95380.66;;;16.10;86.63
20105;BME280;10212;42.714;23.310;2022-08-11T03:19:10;95378.16;;;16.03;87.11
20105;BME280;10212;42.714;23.310;2022-08-11T03:24:21;95380.78;;;15.91;86.91
20105;BME280;10212;42.714;23.310;2022-08-11T03:34:34;95375.94;;;15.88;87.14
20105;BME280;10212;42.714;23.310;2022-08-11T03:40:15;95374.03;;;15.84;87.55
20105;BME280;10212;42.714;23.310;2022-08-11T03:46:09;95381.56;;;15.80;86.90
20105;BME280;10212;42.714;23.310;2022-08-11T04:23:38;95385.34;;;15.96;86.40
20105;BME280;10212;42.714;23.310;2022-08-11T04:39:15;95395.28;;;16.30;85.49
20105;BME280;10212;42.714;23.310;2022-08-11T05:01:23;95393.53;;;16.77;83.10
20105;BME280;10212;42.714;23.310;2022-08-11T05:07:03;95395.81;;;16.85;82.53
20105;BME280;10212;42.714;23.310;2022-08-11T05:12:24;95400.34;;;16.73;82.99
20105;BME280;10212;42.714;23.310;2022-08-11T05:17:38;95393.72;;;16.87;82.81
20105;BME280;10212;42.714;23.310;2022-08-11T05:23:03;95394.53;;;16.88;82.59
20105;BME280;10212;42.714;23.310;2022-08-11T05:28:32;95396.56;;;16.98;82.90
20105;BME280;10212;42.714;23.310;2022-08-11T05:33:57;95394.56;;;17.17;82.60
20105;BME280;10212;42.714;23.310;2022-08-11T05:39:22;95387.34;;;17.13;82.90
20105;BME280;10212;42.714;23.310;2022-08-11T05:44:44;95392.28;;;17.09;83.56
20105;BME280;10212;42.714;23.310;2022-08-11T05:50:08;95397.53;;;17.21;83.38
20105;BME280;10212;42.714;23.310;2022-08-11T05:55:28;95390.84;;;17.47;82.98
20105;BME280;10212;42.714;23.310;2022-08-11T06:00:47;95392.28;;;17.55;83.08
20105;BME280;10212;42.714;23.310;2022-08-11T06:05:48;95392.25;;;17.72;82.60
20105;BME280;10212;42.714;23.310;2022-08-11T06:10:50;95392.41;;;17.83;82.47
20105;BME280;10212;42.714;23.310;2022-08-11T06:15:51;95384.16;;;18.14;81.02
20105;BME280;10212;42.714;23.310;2022-08-11T06:20:54;95380.84;;;18.24;80.95
20105;BME280;10212;42.714;23.310;2022-08-11T06:25:57;95379.81;;;18.47;80.29
20105;BME280;10212;42.714;23.310;2022-08-11T06:30:58;95364.50;;;18.72;78.68
20105;BME280;10212;42.714;23.310;2022-08-11T06:36:07;95365.16;;;18.84;78.36
20105;BME280;10212;42.714;23.310;2022-08-11T06:41:19;95367.22;;;19.04;78.04
20105;BME280;10212;42.714;23.310;2022-08-11T06:46:31;95365.34;;;19.27;76.71
20105;BME280;10212;42.714;23.310;2022-08-11T06:51:33;95372.94;;;19.57;74.58
20105;BME280;10212;42.714;23.310;2022-08-11T06:56:38;95375.25;;;19.81;73.52
20105;BME280;10212;42.714;23.310;2022-08-11T07:02:12;95365.91;;;20.06;71.57
20105;BME280;10212;42.714;23.310;2022-08-11T07:12:53;95372.53;;;20.78;67.04
20105;BME280;10212;42.714;23.310;2022-08-11T07:18:26;95375.72;;;20.80;66.90
20105;BME280;10212;42.714;23.310;2022-08-11T07:23:46;95376.19;;;20.71;66.18
20105;BME280;10212;42.714;23.310;2022-08-11T07:29:06;95377.34;;;20.96;65.83
20105;BME280;10212;42.714;23.310;2022-08-11T07:39:22;95365.47;;;21.25;63.72
20105;BME280;10212;42.714;23.310;2022-08-11T07:44:25;95362.00;;;21.30;63.69
20105;BME280;10212;42.714;23.310;2022-08-11T07:49:31;95356.97;;;21.49;62.59
20105;BME280;10212;42.714;23.310;2022-08-11T07:54:51;95357.22;;;21.58;61.31
20105;BME280;10212;42.714;23.310;2022-08-11T07:59:53;95355.66;;;21.47;59.40
20105;BME280;10212;42.714;23.310;2022-08-11T08:05:15;95350.31;;;21.67;58.79
20105;BME280;10212;42.714;23.310;2022-08-11T08:10:36;95346.81;;;22.14;58.53
20105;BME280;10212;42.714;23.310;2022-08-11T08:15:56;95339.75;;;22.55;57.78
20105;BME280;10212;42.714;23.310;2022-08-11T08:21:15;95347.66;;;22.70;57.47
20105;BME280;10212;42.714;23.310;2022-08-11T08:26:16;95344.06;;;22.91;56.48
20105;BME280;10212;42.714;23.310;2022-08-11T08:31:36;95342.53;;;22.84;56.86
20105;BME280;10212;42.714;23.310;2022-08-11T08:36:39;95333.47;;;22.85;56.58
20105;BME280;10212;42.714;23.310;2022-08-11T08:41:42;95329.97;;;22.95;56.49
20105;BME280;10212;42.714;23.310;2022-08-11T08:46:45;95331.34;;;22.87;56.26
20105;BME280;10212;42.714;23.310;2022-08-11T08:51:51;95331.94;;;22.79;56.14
20105;BME280;10212;42.714;23.310;2022-08-11T08:56:54;95331.25;;;22.98;56.88
20105;BME280;10212;42.714;23.310;2022-08-11T09:02:05;95327.06;;;22.92;57.99
20105;BME280;10212;42.714;23.310;2022-08-11T09:07:09;95319.38;;;22.90;56.55
20105;BME280;10212;42.714;23.310;2022-08-11T09:12:11;95313.72;;;22.97;56.78
20105;BME280;10212;42.714;23.310;2022-08-11T09:17:13;95314.13;;;23.15;54.63
20105;BME280;10212;42.714;23.310;2022-08-11T09:22:20;95302.38;;;23.21;54.06
20105;BME280;10212;42.714;23.310;2022-08-11T09:27:40;95301.50;;;23.31;52.25
20105;BME280;10212;42.714;23.310;2022-08-11T09:32:41;95304.84;;;23.47;52.85
20105;BME280;10212;42.714;23.310;2022-08-11T09:37:42;95301.13;;;23.48;54.52
20105;BME280;10212;42.714;23.310;2022-08-11T09:43:05;95297.72;;;23.67;53.06
20105;BME280;10212;42.714;23.310;2022-08-11T09:48:25;95293.31;;;23.57;53.64
20105;BME280;10212;42.714;23.310;2022-08-11T09:53:32;95293.22;;;23.67;52.61
20105;BME280;10212;42.714;23.310;2022-08-11T09:58:34;95286.03;;;23.92;51.60
20105;BME280;10212;42.714;23.310;2022-08-11T10:03:39;95271.91;;;23.92;50.43
20105;BME280;10212;42.714;23.310;2022-08-11T10:08:42;95275.09;;;23.94;50.36
20105;BME280;10212;42.714;23.310;2022-08-11T10:13:47;95263.53;;;24.04;50.34
20105;BME280;10212;42.714;23.310;2022-08-11T10:19:08;95281.00;;;23.66;50.42
20105;BME280;10212;42.714;23.310;2022-08-11T10:24:10;95270.84;;;23.68;50.30
20105;BME280;10212;42.714;23.310;2022-08-11T10:34:50;95271.00;;;24.02;48.11
20105;BME280;10212;42.714;23.310;2022-08-11T10:39:51;95273.66;;;24.26;48.01
20105;BME280;10212;42.714;23.310;2022-08-11T10:44:57;95276.03;;;24.28;48.64
20105;BME280;10212;42.714;23.310;2022-08-11T10:49:58;95262.88;;;24.37;46.98
20105;BME280;10212;42.714;23.310;2022-08-11T10:55:18;95245.31;;;24.36;47.25
20105;BME280;10212;42.714;23.310;2022-08-11T11:00:37;95237.50;;;24.78;47.63
20105;BME280;10212;42.714;23.310;2022-08-11T11:05:38;95241.81;;;24.74;47.52
20105;BME280;10212;42.714;23.310;2022-08-11T11:10:40;95235.88;;;24.43;45.87
20105;BME280;10212;42.714;23.310;2022-08-11T11:15:44;95242.03;;;24.97;46.15
20105;BME280;10212;42.714;23.310;2022-08-11T11:21:10;95234.88;;;25.11;45.79
20105;BME280;10212;42.714;23.310;2022-08-11T11:31:48;95236.78;;;25.39;45.17
20105;BME280;10212;42.714;23.310;2022-08-11T11:36:54;95236.69;;;25.58;43.79
20105;BME280;10212;42.714;23.310;2022-08-11T11:41:59;95232.63;;;25.33;44.79
20105;BME280;10212;42.714;23.310;2022-08-11T11:47:00;95227.88;;;25.44;45.59
20105;BME280;10212;42.714;23.310;2022-08-11T11:52:01;95219.72;;;25.96;44.59
20105;BME280;10212;42.714;23.310;2022-08-11T11:57:03;95219.94;;;25.86;44.61
20105;BME280;10212;42.714;23.310;2022-08-11T12:02:22;95220.69;;;25.86;46.20
20105;BME280;10212;42.714;23.310;2022-08-11T12:07:23;95230.59;;;26.00;45.47
20105;BME280;10212;42.714;23.310;2022-08-11T12:12:43;95222.41;;;25.82;46.45
20105;BME280;10212;42.714;23.310;2022-08-11T12:18:03;95215.75;;;25.51;46.93
20105;BME280;10212;42.714;23.310;2022-08-11T12:23:04;95203.53;;;25.64;46.82
20105;BME280;10212;42.714;23.310;2022-08-11T12:28:23;95211.75;;;25.35;47.35
20105;BME280;10212;42.714;23.310;2022-08-11T12:33:24;95216.53;;;25.38;46.13
20105;BME280;10212;42.714;23.310;2022-08-11T12:38:26;95227.72;;;25.07;46.67
20105;BME280;10212;42.714;23.310;2022-08-11T12:43:29;95227.47;;;25.22;47.17
20105;BME280;10212;42.714;23.310;2022-08-11T12:48:55;95234.44;;;24.51;51.16
20105;BME280;10212;42.714;23.310;2022-08-11T12:54:20;95236.22;;;25.09;49.09
20105;BME280;10212;42.714;23.310;2022-08-11T12:59:24;95230.31;;;25.73;48.29
20105;BME280;10212;42.714;23.310;2022-08-11T13:04:44;95218.50;;;25.60;48.20
20105;BME280;10212;42.714;23.310;2022-08-11T13:10:16;95216.97;;;25.73;47.99
20105;BME280;10212;42.714;23.310;2022-08-11T13:15:55;95219.13;;;25.99;47.15
20105;BME280;10212;42.714;23.310;2022-08-11T13:20:57;95216.69;;;26.26;46.29
20105;BME280;10212;42.714;23.310;2022-08-11T13:25:58;95202.56;;;26.94;44.15
20105;BME280;10212;42.714;23.310;2022-08-11T13:30:58;95198.72;;;26.78;43.25
20105;BME280;10212;42.714;23.310;2022-08-11T13:36:12;95199.22;;;26.89;43.44
20105;BME280;10212;42.714;23.310;2022-08-11T13:41:16;95196.41;;;27.08;40.54
20105;BME280;10212;42.714;23.310;2022-08-11T13:46:36;95186.66;;;26.66;42.21
20105;BME280;10212;42.714;23.310;2022-08-11T13:51:37;95183.16;;;27.43;39.75
20105;BME280;10212;42.714;23.310;2022-08-11T13:56:42;95184.28;;;27.11;39.38
20105;BME280;10212;42.714;23.310;2022-08-11T14:01:47;95178.41;;;27.81;38.51
20105;BME280;10212;42.714;23.310;2022-08-11T14:06:51;95163.50;;;27.57;37.61
20105;BME280;10212;42.714;23.310;2022-08-11T14:11:57;95170.28;;;27.63;39.57
20105;BME280;10212;42.714;23.310;2022-08-11T14:17:18;95172.09;;;27.77;39.24
20105;BME280;10212;42.714;23.310;2022-08-11T14:22:20;95166.38;;;27.69;40.41
20105;BME280;10212;42.714;23.310;2022-08-11T14:27:22;95167.28;;;27.56;40.84
20105;BME280;10212;42.714;23.310;2022-08-11T14:32:30;95161.78;;;27.61;40.39
20105;BME280;10212;42.714;23.310;2022-08-11T14:37:31;95168.66;;;27.44;41.76
20105;BME280;10212;42.714;23.310;2022-08-11T14:42:32;95171.81;;;27.38;41.72
20105;BME280;10212;42.714;23.310;2022-08-11T14:47:52;95167.69;;;27.40;41.36
20105;BME280;10212;42.714;23.310;2022-08-11T14:52:59;95160.13;;;27.02;41.26
20105;BME280;10212;42.714;23.310;2022-08-11T14:58:00;95162.78;;;27.25;42.06
20105;BME280;10212;42.714;23.310;2022-08-11T15:03:04;95162.13;;;26.96;41.92
20105;BME280;10212;42.714;23.310;2022-08-11T15:08:12;95159.19;;;26.52;42.73
20105;BME280;10212;42.714;23.310;2022-08-11T15:13:17;95160.19;;;26.56;43.11
20105;BME280;10212;42.714;23.310;2022-08-11T15:18:20;95157.75;;;26.45;43.26
20105;BME280;10212;42.714;23.310;2022-08-11T15:23:23;95162.56;;;26.20;42.53
20105;BME280;10212;42.714;23.310;2022-08-11T15:28:45;95167.69;;;25.51;43.75
20105;BME280;10212;42.714;23.310;2022-08-11T15:34:08;95161.97;;;25.44;44.12
20105;BME280;10212;42.714;23.310;2022-08-11T15:39:38;95166.78;;;25.28;44.51
20105;BME280;10212;42.714;23.310;2022-08-11T15:45:04;95160.56;;;25.04;45.26
20105;BME280;10212;42.714;23.310;2022-08-11T15:50:27;95154.13;;;25.05;45.27
20105;BME280;10212;42.714;23.310;2022-08-11T15:55:30;95170.97;;;24.87;44.64
20105;BME280;10212;42.714;23.310;2022-08-11T16:00:35;95163.06;;;24.81;44.81
20105;BME280;10212;42.714;23.310;2022-08-11T16:05:54;95167.34;;;24.63;45.14
20105;BME280;10212;42.714;23.310;2022-08-11T16:10:56;95165.44;;;24.50;45.08
20105;BME280;10212;42.714;23.310;2022-08-11T16:15:58;95160.78;;;24.55;45.07
20105;BME280;10212;42.714;23.310;2022-08-11T16:21:18;95164.56;;;24.54;44.71
20105;BME280;10212;42.714;23.310;2022-08-11T16:26:20;95160.06;;;24.69;44.85
20105;BME280;10212;42.714;23.310;2022-08-11T16:31:23;95164.97;;;24.62;45.31
20105;BME280;10212;42.714;23.310;2022-08-11T16:36:25;95180.84;;;24.53;45.74
20105;BME280;10212;42.714;23.310;2022-08-11T16:41:46;95176.97;;;24.26;45.65
20105;BME280;10212;42.714;23.310;2022-08-11T16:47:09;95183.28;;;24.11;45.70
20105;BME280;10212;42.714;23.310;2022-08-11T16:52:11;95179.25;;;24.13;45.80
20105;BME280;10212;42.714;23.310;2022-08-11T16:57:16;95180.03;;;24.14;45.98
20105;BME280;10212;42.714;23.310;2022-08-11T17:02:41;95188.16;;;24.03;45.68
20105;BME280;10212;42.714;23.310;2022-08-11T17:08:04;95189.81;;;23.99;46.04
20105;BME280;10212;42.714;23.310;2022-08-11T17:13:28;95195.72;;;23.96;46.09
20105;BME280;10212;42.714;23.310;2022-08-11T17:18:34;95191.66;;;23.79;46.67
20105;BME280;10212;42.714;23.310;2022-08-11T17:23:44;95202.44;;;23.69;47.08
20105;BME280;10212;42.714;23.310;2022-08-11T17:28:52;95217.34;;;23.70;47.08
20105;BME280;10212;42.714;23.310;2022-08-11T17:33:55;95216.66;;;23.59;47.13
20105;BME280;10212;42.714;23.310;2022-08-11T17:39:16;95218.13;;;23.46;47.33
20105;BME280;10212;42.714;23.310;2022-08-11T17:44:18;95225.13;;;23.36;47.35
20105;BME280;10212;42.714;23.310;2022-08-11T17:49:38;95233.69;;;23.28;47.75
20105;BME280;10212;42.714;23.310;2022-08-11T17:54:40;95238.53;;;23.21;48.31
20105;BME280;10212;42.714;23.310;2022-08-11T18:00:00;95239.25;;;23.32;47.55
20105;BME280;10212;42.714;23.310;2022-08-11T18:05:02;95245.56;;;23.11;48.87
20105;BME280;10212;42.714;23.310;2022-08-11T18:10:06;95256.19;;;23.11;48.70
20105;BME280;10212;42.714;23.310;2022-08-11T18:15:26;95256.78;;;23.03;49.05
20105;BME280;10212;42.714;23.310;2022-08-11T18:20:46;95264.50;;;23.34;47.71
20105;BME280;10212;42.714;23.310;2022-08-11T18:26:05;95268.22;;;23.33;47.42
20105;BME280;10212;42.714;23.310;2022-08-11T18:31:27;95276.66;;;23.11;48.27
20105;BME280;10212;42.714;23.310;2022-08-11T18:36:58;95278.09;;;22.98;48.61
20105;BME280;10212;42.714;23.310;2022-08-11T18:42:21;95288.81;;;22.87;48.71
20105;BME280;10212;42.714;23.310;2022-08-11T18:47:41;95292.13;;;22.69;49.53
20105;BME280;10212;42.714;23.310;2022-08-11T18:53:03;95294.91;;;22.43;50.62
20105;BME280;10212;42.714;23.310;2022-08-11T18:58:27;95290.19;;;22.29;51.21
20105;BME280;10212;42.714;23.310;2022-08-11T19:03:48;95297.03;;;22.40;50.21
20105;BME280;10212;42.714;23.310;2022-08-11T19:09:12;95290.13;;;22.39;50.31
20105;BME280;10212;42.714;23.310;2022-08-11T19:14:34;95286.97;;;22.37;50.71
20105;BME280;10212;42.714;23.310;2022-08-11T19:19:55;95276.59;;;22.41;50.21
20105;BME280;10212;42.714;23.310;2022-08-11T19:25:15;95279.56;;;22.24;50.75
20105;BME280;10212;42.714;23.310;2022-08-11T19:30:36;95287.59;;;22.13;50.79
20105;BME280;10212;42.714;23.310;2022-08-11T19:35:56;95283.91;;;22.09;50.85
20105;BME280;10212;42.714;23.310;2022-08-11T19:41:16;95280.78;;;21.97;51.96
20105;BME280;10212;42.714;23.310;2022-08-11T19:46:37;95274.41;;;21.87;51.69
20105;BME280;10212;42.714;23.310;2022-08-11T19:51:57;95274.19;;;21.68;53.04
20105;BME280;10212;42.714;23.310;2022-08-11T19:57:18;95284.00;;;21.62;54.25
20105;BME280;10212;42.714;23.310;2022-08-11T20:02:38;95279.25;;;21.59;53.80
20105;BME280;10212;42.714;23.310;2022-08-11T20:07:58;95285.09;;;21.45;54.16
20105;BME280;10212;42.714;23.310;2022-08-11T20:13:18;95281.94;;;21.43;53.86
20105;BME280;10212;42.714;23.310;2022-08-11T20:18:40;95287.75;;;21.40;54.36
20105;BME280;10212;42.714;23.310;2022-08-11T20:24:00;95293.63;;;21.16;55.27
20105;BME280;10212;42.714;23.310;2022-08-11T20:29:23;95293.34;;;21.02;55.23
20105;BME280;10212;42.714;23.310;2022-08-11T20:34:46;95291.22;;;20.94;55.82
20105;BME280;10212;42.714;23.310;2022-08-11T20:40:06;95305.28;;;21.10;55.70
20105;BME280;10212;42.714;23.310;2022-08-11T20:45:26;95301.28;;;21.02;55.68
20105;BME280;10212;42.714;23.310;2022-08-11T20:50:47;95310.59;;;21.10;55.30
20105;BME280;10212;42.714;23.310;2022-08-11T20:56:08;95309.53;;;21.11;55.62
20105;BME280;10212;42.714;23.310;2022-08-11T21:01:28;95304.50;;;21.10;55.62
20105;BME280;10212;42.714;23.310;2022-08-11T21:06:49;95303.69;;;20.99;56.58
20105;BME280;10212;42.714;23.310;2022-08-11T21:12:09;95302.59;;;21.05;56.90
20105;BME280;10212;42.714;23.310;2022-08-11T21:17:32;95314.56;;;20.97;58.07
20105;BME280;10212;42.714;23.310;2022-08-11T21:23:05;95321.69;;;21.02;58.19
20105;BME280;10212;42.714;23.310;2022-08-11T21:28:27;95319.81;;;20.81;59.34
20105;BME280;10212;42.714;23.310;2022-08-11T21:33:48;95330.13;;;20.67;60.06
20105;BME280;10212;42.714;23.310;2022-08-11T21:39:08;95333.25;;;20.59;60.60
20105;BME280;10212;42.714;23.310;2022-08-11T21:44:28;95338.31;;;20.60;60.84
20105;BME280;10212;42.714;23.310;2022-08-11T21:49:47;95337.50;;;20.60;61.30
20105;BME280;10212;42.714;23.310;2022-08-11T21:55:07;95337.00;;;20.68;61.21
20105;BME280;10212;42.714;23.310;2022-08-11T22:00:26;95330.38;;;20.66;61.45
20105;BME280;10212;42.714;23.310;2022-08-11T22:05:46;95334.03;;;20.54;62.24
20105;BME280;10212;42.714;23.310;2022-08-11T22:11:06;95333.47;;;20.42;62.83
20105;BME280;10212;42.714;23.310;2022-08-11T22:16:25;95333.25;;;20.64;62.08
20105;BME280;10212;42.714;23.310;2022-08-11T22:21:44;95334.88;;;20.65;62.12
20105;BME280;10212;42.714;23.310;2022-08-11T22:27:04;95345.41;;;20.44;62.70
20105;BME280;10212;42.714;23.310;2022-08-11T22:32:23;95338.25;;;20.45;62.57
20105;BME280;10212;42.714;23.310;2022-08-11T22:37:44;95331.88;;;20.41;62.73
20105;BME280;10212;42.714;23.310;2022-08-11T22:43:04;95324.81;;;20.62;62.11
20105;BME280;10212;42.714;23.310;2022-08-11T22:48:25;95319.97;;;20.48;62.43
20105;BME280;10212;42.714;23.310;2022-08-11T22:53:46;95324.72;;;20.41;62.66
20105;BME280;10212;42.714;23.310;2022-08-11T22:59:05;95317.34;;;20.54;62.13
20105;BME280;10212;42.714;23.310;2022-08-11T23:04:25;95314.66;;;20.43;62.49
20105;BME280;10212;42.714;23.310;2022-08-11T23:09:45;95308.06;;;20.46;62.32
20105;BME280;10212;42.714;23.310;2022-08-11T23:15:05;95306.25;;;20.52;62.07
20105;BME280;10212;42.714;23.310;2022-08-11T23:20:24;95307.78;;;20.42;62.58
20105;BME280;10212;42.714;23.310;2022-08-11T23:25:44;95309.38;;;20.43;62.56
20105;BME280;10212;42.714;23.310;2022-08-11T23:31:04;95314.63;;;20.28;62.93
20105;BME280;10212;42.714;23.310;2022-08-11T23:36:24;95322.50;;;20.12;63.51
20105;BME280;10212;42.714;23.310;2022-08-11T23:41:43;95313.91;;;19.89;64.39
20105;BME280;10212;42.714;23.310;2022-08-11T23:47:03;95311.25;;;19.89;64.74
20105;BME280;10212;42.714;23.310;2022-08-11T23:52:25;95310.72;;;19.87;64.83
20105;BME280;10212;42.714;23.310;2022-08-11T23:57:45;95306.09;;;19.61;65.84
